KGLS Airport Information

Runway Information
Runway 07 Length 3774 ft width 150 ft
Elevation 7 ft Threshold 0 ft Heading 76
Runway 25 Length 3774 ft Width 150 ft
Elevation 7 ft Threshold 0 ft Heading 256
Runway 13 Length 6000 ft width 150 ft
Elevation 5 ft Threshold 0 ft Heading 140
Runway 31 Length 6000 ft Width 150 ft
Elevation 5 ft Threshold 0 ft Heading 320
Runway 17 Length 6001 ft width 150 ft
Elevation 6 ft Threshold 0 ft Heading 181
Runway 35 Length 6001 ft Width 150 ft
Elevation 5 ft Threshold 0 ft Heading 1
Airport Frequencies
Type A/D Name HOUSTON AP Frequency 134.45 MHZ
Type ASOS Name ASOS Frequency 119.275 MHZ
Type CLD Name CLNC DEL Frequency 135.35 MHZ
Type CTAF Name CTAF Frequency 120.575 MHZ
Type GND Name GND Frequency 118.625 MHZ
Type RDO Name MONTGOMERY Frequency 122.15 MHZ
Type TWR Name TWR Frequency 120.575 MHZ
Type UNIC Name UNICOM Frequency 123.05 MHZ
Airport Navaids
Type NDB Name Galveston Frequency 206 KHZ
Type VOR-DME Name Trinity Frequency 113600 KHZ
Type VORTAC Name Scholes Frequency 113000 KHZ
Airport Weather Information & NOTAM
ADDS - METARS form results

(0534 UTC 22 January 2021)
Data provider http://aviationweather.gov/metar/data/
 
METAR text: KGLS 220520Z AUTO 21003KT 5SM BR OVC003 19/18 A2992 RMK AO2 T01940178
Conditions at: KGLS (GALVESTON , TX, US) observed 0520 UTC 22 January 2021
Temperature: 19.4°C (67°F)
Dewpoint: 17.8°C (64°F) [RH = 90%]
Pressure (altimeter): 29.92 inches Hg (1013.3 mb)
Winds: from the SSW (210 degrees) at 3 MPH (3 knots; 1.5 m/s)
Visibility: 5 miles ( 8 km)
Ceiling: 300 feet AGL
Clouds: overcast cloud deck at 300 feet AGL
Weather: BR  (mist)

METAR text: KGLS 220511Z AUTO 23005KT 2SM BR BKN003 OVC009 19/18 A2993 RMK AO2 T01890178
Conditions at: KGLS (GALVESTON , TX, US) observed 0511 UTC 22 January 2021
Temperature: 18.9°C (66°F)
Dewpoint: 17.8°C (64°F) [RH = 93%]
Pressure (altimeter): 29.93 inches Hg (1013.6 mb)
Winds: from the SW (230 degrees) at 6 MPH (5 knots; 2.6 m/s)
Visibility: 2.00 miles (3.22 km)
Ceiling: 300 feet AGL
Clouds: broken clouds at 300 feet AGL
overcast cloud deck at 900 feet AGL
Weather: BR  (mist)

METAR text: KGLS 220501Z AUTO 23004KT 2 1/2SM BR SCT002 OVC009 18/17 A2994 RMK AO2 T01830172
Conditions at: KGLS (GALVESTON , TX, US) observed 0501 UTC 22 January 2021
Temperature: 18.3°C (65°F)
Dewpoint: 17.2°C (63°F) [RH = 93%]
Pressure (altimeter): 29.94 inches Hg (1014.0 mb)
Winds: from the SW (230 degrees) at 5 MPH (4 knots; 2.1 m/s)
Visibility: 2.50 miles (4.02 km)
Ceiling: 900 feet AGL
Clouds: scattered clouds at 200 feet AGL
overcast cloud deck at 900 feet AGL
Weather: BR  (mist)

METAR text: KGLS 220452Z AUTO 23004KT 3SM BR SCT002 OVC010 18/17 A2994 RMK AO2 RAB11E46 SLP137 P0001 T01830172
Conditions at: KGLS (GALVESTON , TX, US) observed 0452 UTC 22 January 2021
Temperature: 18.3°C (65°F)
Dewpoint: 17.2°C (63°F) [RH = 93%]
Pressure (altimeter): 29.94 inches Hg (1014.0 mb)
[Sea-level pressure: 1013.7 mb]
Winds: from the SW (230 degrees) at 5 MPH (4 knots; 2.1 m/s)
Visibility: 3 miles ( 5 km)
Ceiling: 1000 feet AGL
Clouds: scattered clouds at 200 feet AGL
overcast cloud deck at 1000 feet AGL
Weather: BR  (mist)

METAR text: KGLS 220445Z AUTO 23004KT 2SM -RA BR BKN002 BKN010 OVC028 18/17 A2993 RMK AO2 RAB11 P0001 T01830172
Conditions at: KGLS (GALVESTON , TX, US) observed 0445 UTC 22 January 2021
Temperature: 18.3°C (65°F)
Dewpoint: 17.2°C (63°F) [RH = 93%]
Pressure (altimeter): 29.93 inches Hg (1013.6 mb)
Winds: from the SW (230 degrees) at 5 MPH (4 knots; 2.1 m/s)
Visibility: 2.00 miles (3.22 km)
Ceiling: 200 feet AGL
Clouds: broken clouds at 200 feet AGL
broken clouds at 1000 feet AGL
overcast cloud deck at 2800 feet AGL
Weather: -RA BR  (light rain, mist)

Forecast for: KGLS (GALVESTON , TX, US)
Text: KGLS 220520Z 2206/2306 22006KT 2SM -RA BR OVC009
Forecast period: 0600 to 0800 UTC 22 January 2021
Forecast type: FROM: standard forecast or significant change
Winds: from the SW (220 degrees) at 7 MPH (6 knots; 3.1 m/s)
Visibility: 2.00 miles (3.22 km)
Ceiling: 900 feet AGL
Clouds: overcast cloud deck at 900 feet AGL
Weather: -RA BR  (light rain, mist)
Text: FM220800 23006KT 1SM BR VCSH OVC002
Forecast period: 0800 to 1600 UTC 22 January 2021
Forecast type: FROM: standard forecast or significant change
Winds: from the SW (230 degrees) at 7 MPH (6 knots; 3.1 m/s)
Visibility: 1.00 miles (1.61 km)
Ceiling: 200 feet AGL
Clouds: overcast cloud deck at 200 feet AGL
Weather: BR VCSH  (mist, showers in vicinity)
Text: FM221600 02006KT 3SM BR BKN004 OVC015
Forecast period: 1600 to 2000 UTC 22 January 2021
Forecast type: FROM: standard forecast or significant change
Winds: from the NNE (20 degrees) at 7 MPH (6 knots; 3.1 m/s)
Visibility: 3 miles (5 km)
Ceiling: 400 feet AGL
Clouds: broken clouds at 400 feet AGL
overcast cloud deck at 1500 feet AGL
Weather: BR  (mist)
Text: FM222000 08007KT 4SM BR BKN015 OVC035
Forecast period: 2000 UTC 22 January 2021 to 0200 UTC 23 January 2021
Forecast type: FROM: standard forecast or significant change
Winds: from the E (80 degrees) at 8 MPH (7 knots; 3.6 m/s)
Visibility: 4 miles (6 km)
Ceiling: 1500 feet AGL
Clouds: broken clouds at 1500 feet AGL
overcast cloud deck at 3500 feet AGL
Weather: BR  (mist)
Text: FM230200 06005KT 4SM BR OVC007
Forecast period: 0200 to 0600 UTC 23 January 2021
Forecast type: FROM: standard forecast or significant change
Winds: from the ENE (60 degrees) at 6 MPH (5 knots; 2.6 m/s)
Visibility: 4 miles (6 km)
Ceiling: 700 feet AGL
Clouds: overcast cloud deck at 700 feet AGL
Weather: BR  (mist)